C. Angelo — WCZ5866 — position and weather

sailwx.info

Track history (hours):
 
Tides and Currents Weather Stations Pressure Air Temp Water Temp Dewpoint Dewpoint Depression Visibility Wind Speed Wind Dir Waves Ship Positions

C. Angelo

Owner: G T 110 INC, NEW HAVEN, CT. More information available from US FCC via Universal Licensing System and Coast Guard Vessel Documentation Center.

Last reported at 2015-Jan-26 15:32 UTC. Time now 2015-Jan-26 16:34 UTC.
Position N 41°18' W 072°54'.

Length 30 m; draft 4.1 m.

Type: Tug. MMSI: 366988420.

Date/timePositionNaut miles runAvg speedWind from/ knotsBaromVisibWave heightAir tempDewpointWater temp
2015-Jan-26 15:32N 41°18' W 072°54'0 0.0
2015-Jan-26 14:33N 41°18' W 072°54'0 0.0
2015-Jan-26 13:33N 41°18' W 072°54'0 0.0
2015-Jan-26 12:33N 41°18' W 072°54'0 0.0
2015-Jan-26 11:33N 41°18' W 072°54'0 0.0
2015-Jan-26 10:33N 41°18' W 072°54'0 0.0
2015-Jan-26 09:33N 41°18' W 072°54'0 0.0
2015-Jan-26 08:33N 41°18' W 072°54'0 0.0
2015-Jan-26 07:33N 41°18' W 072°54'0 0.0
2015-Jan-26 06:33N 41°18' W 072°54'0 0.0
2015-Jan-26 05:33N 41°18' W 072°54'0 0.0
2015-Jan-26 04:33N 41°18' W 072°54'0 0.0
2015-Jan-26 03:33N 41°18' W 072°54'0 0.0
2015-Jan-26 02:10N 41°18' W 072°54'0 0.0
2015-Jan-26 01:26N 41°18' W 072°54'0 0.0
2015-Jan-26 00:29N 41°18' W 072°54'0 0.0
2015-Jan-25 23:32N 41°18' W 072°54'0 0.0
2015-Jan-25 22:33N 41°18' W 072°54'0 0.0
2015-Jan-25 21:33N 41°18' W 072°54'0 0.0
2015-Jan-25 20:33N 41°18' W 072°54'0 0.0
2015-Jan-25 19:33N 41°18' W 072°54'0 0.0
2015-Jan-25 18:31N 41°18' W 072°54'0 0.0
2015-Jan-25 17:31N 41°18' W 072°54'0 0.0
2015-Jan-25 16:30N 41°18' W 072°54'0 0.0
2015-Jan-25 15:30N 41°18' W 072°54'0 0.0
2015-Jan-25 14:32N 41°18' W 072°54'0 0.0
2015-Jan-25 13:32N 41°18' W 072°54'0 0.0
2015-Jan-25 12:32N 41°18' W 072°54'0 0.0
2015-Jan-25 11:34N 41°18' W 072°54'0 0.0
2015-Jan-25 10:33N 41°18' W 072°54'0 0.0
2015-Jan-25 09:33N 41°18' W 072°54'0 0.0
2015-Jan-25 08:33N 41°18' W 072°54'0 0.0
2015-Jan-25 07:33N 41°18' W 072°54'0 0.0
2015-Jan-25 06:33N 41°18' W 072°54'0 0.0
2015-Jan-25 05:33N 41°18' W 072°54'0 0.0
2015-Jan-25 04:33N 41°18' W 072°54'0 0.0
2015-Jan-25 03:33N 41°18' W 072°54'0 0.0
2015-Jan-25 02:33N 41°18' W 072°54'0 0.0
2015-Jan-25 01:33N 41°18' W 072°54'0 0.0
2015-Jan-25 00:33N 41°18' W 072°54'0 0.0
2015-Jan-24 23:33N 41°18' W 072°54'0 0.0
2015-Jan-24 22:33N 41°18' W 072°54'0 0.0
2015-Jan-24 21:33N 41°18' W 072°54'0 0.0
2015-Jan-24 20:33N 41°18' W 072°54'0 0.0
2015-Jan-24 19:34N 41°18' W 072°54'0 0.0
2015-Jan-24 18:33N 41°18' W 072°54'0 0.0
2015-Jan-24 17:33N 41°18' W 072°54'0 0.0
2015-Jan-24 16:33N 41°18' W 072°54'0 0.0
2015-Jan-24 15:09N 41°18' W 072°54'0 0.0
2015-Jan-24 14:33N 41°18' W 072°54'0 0.0
2015-Jan-24 08:33N 41°18' W 072°54'0 0.0
2015-Jan-24 07:33N 41°18' W 072°54'1 0.5
2015-Jan-24 06:32N 41°17' W 072°55'6 5.9
2015-Jan-24 05:33N 41°12' W 072°56'9 9.0
2015-Jan-24 04:33N 41°06' W 073°06'9 8.6
2015-Jan-24 03:33N 41°03' W 073°16'9 8.7
2015-Jan-24 02:33N 40°60' W 073°27'9 9.4
2015-Jan-24 01:33N 40°55' W 073°38'9 8.7
2015-Jan-24 00:33N 40°50' W 073°47'8 8.1
2015-Jan-23 23:30N 40°46' W 073°57'7 7.3
2015-Jan-23 22:33N 40°40' W 074°02'4 4.0
2015-Jan-23 21:33N 40°39' W 074°07'0 0.0
2015-Jan-23 20:33N 40°39' W 074°07'0 0.3
2015-Jan-23 19:23N 40°39' W 074°07'0 0.0
2015-Jan-23 18:33N 40°39' W 074°07'0 0.0
2015-Jan-23 16:06N 40°39' W 074°07'0 0.6
2015-Jan-23 15:34N 40°39' W 074°07'5 5.0
2015-Jan-23 14:33N 40°40' W 074°00'0 0.0
2015-Jan-23 13:33N 40°40' W 074°00'0 0.0
2015-Jan-23 12:33N 40°40' W 074°00'0 0.0
2015-Jan-23 11:33N 40°40' W 074°00'0 0.0
2015-Jan-23 10:33N 40°40' W 074°00'0 0.0
2015-Jan-23 09:33N 40°40' W 074°00'0 0.0
2015-Jan-23 08:34N 40°40' W 074°00'0 0.0
2015-Jan-23 07:33N 40°40' W 074°00'0 0.0
2015-Jan-23 06:33N 40°40' W 074°00'0 0.0
2015-Jan-23 05:34N 40°40' W 074°00'0 0.0
2015-Jan-23 04:33N 40°40' W 074°00'0 0.0
2015-Jan-23 03:32N 40°40' W 074°00'0 0.0
2015-Jan-23 02:33N 40°40' W 074°00'0 0.0
2015-Jan-23 01:33N 40°40' W 074°00'0 0.0
2015-Jan-23 00:33N 40°40' W 074°00'0 0.0
2015-Jan-22 23:33N 40°40' W 074°00'0 0.0
2015-Jan-22 22:33N 40°40' W 074°00'0 0.0
2015-Jan-22 21:33N 40°40' W 074°00'0 0.0
2015-Jan-22 20:33N 40°40' W 074°00'0 0.0
2015-Jan-22 19:33N 40°40' W 074°00'0 0.0
2015-Jan-22 18:33N 40°40' W 074°00'0 0.0
2015-Jan-22 17:33N 40°40' W 074°00'0 0.0
2015-Jan-22 16:33N 40°40' W 074°00'0 0.0
2015-Jan-22 15:33N 40°40' W 074°00'0 0.0
2015-Jan-22 14:33N 40°40' W 074°00'0 0.0
2015-Jan-22 13:33N 40°40' W 074°00'0 0.0
2015-Jan-22 12:33N 40°40' W 074°00'0 0.0
2015-Jan-22 11:33N 40°40' W 074°00'2 2.1
2015-Jan-22 10:33N 40°39' W 074°02'3 3.1
2015-Jan-22 09:33N 40°36' W 074°02'3 3.3
2015-Jan-22 08:33N 40°32' W 074°01'5 4.9
2015-Jan-22 07:33N 40°29' W 073°56'13 5.8
2015-Jan-22 05:20N 40°17' W 073°54'13 6.8
2015-Jan-22 03:27N 40°04' W 073°55'14 7.3
2015-Jan-22 01:29N 39°49' W 073°56'7 7.2
2015-Jan-22 00:33N 39°43' W 073°59'7 7.4
2015-Jan-21 23:33N 39°37' W 074°03'6 7.3
2015-Jan-21 22:44N 39°31' W 074°07'3 7.1
2015-Jan-21 22:18N 39°29' W 074°09'314 7.0
2015-Jan-20 01:13N 34°31' W 076°17'13 7.6
2015-Jan-19 23:33N 34°26' W 076°31'8 7.8
2015-Jan-19 22:33N 34°32' W 076°36'7 7.1
2015-Jan-19 21:33N 34°38' W 076°40'4 3.9
2015-Jan-19 20:33N 34°42' W 076°41'1 1.1
2015-Jan-19 19:33N 34°43' W 076°42'0 0.0
2015-Jan-19 18:33N 34°43' W 076°42'0 0.0
2015-Jan-19 17:33N 34°43' W 076°42'0 0.0
2015-Jan-19 16:33N 34°43' W 076°42'0 0.0
2015-Jan-19 15:33N 34°43' W 076°42'0 0.0
2015-Jan-19 14:33N 34°43' W 076°42'0 0.0
2015-Jan-19 13:33N 34°43' W 076°42'0 0.0
2015-Jan-19 12:33N 34°43' W 076°42'0 0.0
2015-Jan-19 11:33N 34°43' W 076°42'0 0.0
2015-Jan-19 10:33N 34°43' W 076°42'0 0.0
2015-Jan-19 09:33N 34°43' W 076°42'0 0.0
2015-Jan-19 08:33N 34°43' W 076°42'0 0.0
2015-Jan-19 07:33N 34°43' W 076°42'0 0.0
2015-Jan-19 06:33N 34°43' W 076°42'0 0.0
2015-Jan-19 05:33N 34°43' W 076°42'0 0.0
2015-Jan-19 04:33N 34°43' W 076°42'0 0.0
2015-Jan-19 03:33N 34°43' W 076°42'0 0.0
2015-Jan-19 02:33N 34°43' W 076°42'0 0.0
2015-Jan-19 01:33N 34°43' W 076°42'0 0.0
2015-Jan-19 00:33N 34°43' W 076°42'0 0.0
2015-Jan-18 23:33N 34°43' W 076°42'0 0.0
2015-Jan-18 22:33N 34°43' W 076°42'0 0.0
2015-Jan-18 21:33N 34°43' W 076°42'0 0.0
2015-Jan-18 20:33N 34°43' W 076°42'0 0.0
2015-Jan-18 19:33N 34°43' W 076°42'0 0.0
2015-Jan-18 18:33N 34°43' W 076°42'0 0.0
2015-Jan-18 17:33N 34°43' W 076°42'0 0.0
2015-Jan-18 16:33N 34°43' W 076°42'0 0.0
2015-Jan-18 15:33N 34°43' W 076°42'0 0.0
2015-Jan-18 14:33N 34°43' W 076°42'0 0.0
2015-Jan-18 13:33N 34°43' W 076°42'0 0.0
2015-Jan-18 12:33N 34°43' W 076°42'0 0.0
2015-Jan-18 11:33N 34°43' W 076°42'0 0.0
2015-Jan-18 10:33N 34°43' W 076°42'0 0.0
2015-Jan-18 09:33N 34°43' W 076°42'0 0.0
2015-Jan-18 08:33N 34°43' W 076°42'0 0.0
2015-Jan-18 07:33N 34°43' W 076°42'0 0.0
2015-Jan-18 06:33N 34°43' W 076°42'0 0.0
2015-Jan-18 05:33N 34°43' W 076°42'0 0.0
2015-Jan-18 04:33N 34°43' W 076°42'0 0.0
2015-Jan-18 03:33N 34°43' W 076°42'0 0.0
2015-Jan-18 02:33N 34°43' W 076°42'0 0.3
2015-Jan-18 01:33N 34°43' W 076°42'3 3.0
2015-Jan-18 00:33N 34°40' W 076°40'1 1.3
2015-Jan-17 23:33N 34°39' W 076°40'5 4.7
2015-Jan-17 22:33N 34°34' W 076°43'7 7.3
2015-Jan-17 21:33N 34°28' W 076°47'  
Track history (hours):
 
Tides and Currents Weather Stations Pressure Air Temp Water Temp Dewpoint Dewpoint Depression Visibility Wind Speed Wind Dir Waves Ship Positions

C. Angelo

Owner: G T 110 INC, NEW HAVEN, CT. More information available from US FCC via Universal Licensing System and Coast Guard Vessel Documentation Center.

Last reported at 2015-Jan-26 15:32 UTC. Time now 2015-Jan-26 16:34 UTC.
Position N 41°18' W 072°54'.

Length 30 m; draft 4.1 m.

Type: Tug. MMSI: 366988420.

Date/timePositionNaut miles runAvg speedWind from/ knotsBaromVisibWave heightAir tempDewpointWater temp
2015-Jan-26 15:32N 41°18' W 072°54'0 0.0
2015-Jan-26 14:33N 41°18' W 072°54'0 0.0
2015-Jan-26 13:33N 41°18' W 072°54'0 0.0
2015-Jan-26 12:33N 41°18' W 072°54'0 0.0
2015-Jan-26 11:33N 41°18' W 072°54'0 0.0
2015-Jan-26 10:33N 41°18' W 072°54'0 0.0
2015-Jan-26 09:33N 41°18' W 072°54'0 0.0
2015-Jan-26 08:33N 41°18' W 072°54'0 0.0
2015-Jan-26 07:33N 41°18' W 072°54'0 0.0
2015-Jan-26 06:33N 41°18' W 072°54'0 0.0
2015-Jan-26 05:33N 41°18' W 072°54'0 0.0
2015-Jan-26 04:33N 41°18' W 072°54'0 0.0
2015-Jan-26 03:33N 41°18' W 072°54'0 0.0
2015-Jan-26 02:10N 41°18' W 072°54'0 0.0
2015-Jan-26 01:26N 41°18' W 072°54'0 0.0
2015-Jan-26 00:29N 41°18' W 072°54'0 0.0
2015-Jan-25 23:32N 41°18' W 072°54'0 0.0
2015-Jan-25 22:33N 41°18' W 072°54'0 0.0
2015-Jan-25 21:33N 41°18' W 072°54'0 0.0
2015-Jan-25 20:33N 41°18' W 072°54'0 0.0
2015-Jan-25 19:33N 41°18' W 072°54'0 0.0
2015-Jan-25 18:31N 41°18' W 072°54'0 0.0
2015-Jan-25 17:31N 41°18' W 072°54'0 0.0
2015-Jan-25 16:30N 41°18' W 072°54'0 0.0
2015-Jan-25 15:30N 41°18' W 072°54'0 0.0
2015-Jan-25 14:32N 41°18' W 072°54'0 0.0
2015-Jan-25 13:32N 41°18' W 072°54'0 0.0
2015-Jan-25 12:32N 41°18' W 072°54'0 0.0
2015-Jan-25 11:34N 41°18' W 072°54'0 0.0
2015-Jan-25 10:33N 41°18' W 072°54'0 0.0
2015-Jan-25 09:33N 41°18' W 072°54'0 0.0
2015-Jan-25 08:33N 41°18' W 072°54'0 0.0
2015-Jan-25 07:33N 41°18' W 072°54'0 0.0
2015-Jan-25 06:33N 41°18' W 072°54'0 0.0
2015-Jan-25 05:33N 41°18' W 072°54'0 0.0
2015-Jan-25 04:33N 41°18' W 072°54'0 0.0
2015-Jan-25 03:33N 41°18' W 072°54'0 0.0
2015-Jan-25 02:33N 41°18' W 072°54'0 0.0
2015-Jan-25 01:33N 41°18' W 072°54'0 0.0
2015-Jan-25 00:33N 41°18' W 072°54'0 0.0
2015-Jan-24 23:33N 41°18' W 072°54'0 0.0
2015-Jan-24 22:33N 41°18' W 072°54'0 0.0
2015-Jan-24 21:33N 41°18' W 072°54'0 0.0
2015-Jan-24 20:33N 41°18' W 072°54'0 0.0
2015-Jan-24 19:34N 41°18' W 072°54'0 0.0
2015-Jan-24 18:33N 41°18' W 072°54'0 0.0
2015-Jan-24 17:33N 41°18' W 072°54'0 0.0
2015-Jan-24 16:33N 41°18' W 072°54'0 0.0
2015-Jan-24 15:09N 41°18' W 072°54'0 0.0
2015-Jan-24 14:33N 41°18' W 072°54'0 0.0
2015-Jan-24 08:33N 41°18' W 072°54'0 0.0
2015-Jan-24 07:33N 41°18' W 072°54'1 0.5
2015-Jan-24 06:32N 41°17' W 072°55'6 5.9
2015-Jan-24 05:33N 41°12' W 072°56'9 9.0
2015-Jan-24 04:33N 41°06' W 073°06'9 8.6
2015-Jan-24 03:33N 41°03' W 073°16'9 8.7
2015-Jan-24 02:33N 40°60' W 073°27'9 9.4
2015-Jan-24 01:33N 40°55' W 073°38'9 8.7
2015-Jan-24 00:33N 40°50' W 073°47'8 8.1
2015-Jan-23 23:30N 40°46' W 073°57'7 7.3
2015-Jan-23 22:33N 40°40' W 074°02'4 4.0
2015-Jan-23 21:33N 40°39' W 074°07'0 0.0
2015-Jan-23 20:33N 40°39' W 074°07'0 0.3
2015-Jan-23 19:23N 40°39' W 074°07'0 0.0
2015-Jan-23 18:33N 40°39' W 074°07'0 0.0
2015-Jan-23 16:06N 40°39' W 074°07'0 0.6
2015-Jan-23 15:34N 40°39' W 074°07'5 5.0
2015-Jan-23 14:33N 40°40' W 074°00'0 0.0
2015-Jan-23 13:33N 40°40' W 074°00'0 0.0
2015-Jan-23 12:33N 40°40' W 074°00'0 0.0
2015-Jan-23 11:33N 40°40' W 074°00'0 0.0
2015-Jan-23 10:33N 40°40' W 074°00'0 0.0
2015-Jan-23 09:33N 40°40' W 074°00'0 0.0
2015-Jan-23 08:34N 40°40' W 074°00'0 0.0
2015-Jan-23 07:33N 40°40' W 074°00'0 0.0
2015-Jan-23 06:33N 40°40' W 074°00'0 0.0
2015-Jan-23 05:34N 40°40' W 074°00'0 0.0
2015-Jan-23 04:33N 40°40' W 074°00'0 0.0
2015-Jan-23 03:32N 40°40' W 074°00'0 0.0
2015-Jan-23 02:33N 40°40' W 074°00'0 0.0
2015-Jan-23 01:33N 40°40' W 074°00'0 0.0
2015-Jan-23 00:33N 40°40' W 074°00'0 0.0
2015-Jan-22 23:33N 40°40' W 074°00'0 0.0
2015-Jan-22 22:33N 40°40' W 074°00'0 0.0
2015-Jan-22 21:33N 40°40' W 074°00'0 0.0
2015-Jan-22 20:33N 40°40' W 074°00'0 0.0
2015-Jan-22 19:33N 40°40' W 074°00'0 0.0
2015-Jan-22 18:33N 40°40' W 074°00'0 0.0
2015-Jan-22 17:33N 40°40' W 074°00'0 0.0
2015-Jan-22 16:33N 40°40' W 074°00'0 0.0
2015-Jan-22 15:33N 40°40' W 074°00'0 0.0
2015-Jan-22 14:33N 40°40' W 074°00'0 0.0
2015-Jan-22 13:33N 40°40' W 074°00'0 0.0
2015-Jan-22 12:33N 40°40' W 074°00'0 0.0
2015-Jan-22 11:33N 40°40' W 074°00'2 2.1
2015-Jan-22 10:33N 40°39' W 074°02'3 3.1
2015-Jan-22 09:33N 40°36' W 074°02'3 3.3
2015-Jan-22 08:33N 40°32' W 074°01'5 4.9
2015-Jan-22 07:33N 40°29' W 073°56'13 5.8
2015-Jan-22 05:20N 40°17' W 073°54'13 6.8
2015-Jan-22 03:27N 40°04' W 073°55'14 7.3
2015-Jan-22 01:29N 39°49' W 073°56'7 7.2
2015-Jan-22 00:33N 39°43' W 073°59'7 7.4
2015-Jan-21 23:33N 39°37' W 074°03'6 7.3
2015-Jan-21 22:44N 39°31' W 074°07'3 7.1
2015-Jan-21 22:18N 39°29' W 074°09'314 7.0
2015-Jan-20 01:13N 34°31' W 076°17'13 7.6
2015-Jan-19 23:33N 34°26' W 076°31'8 7.8
2015-Jan-19 22:33N 34°32' W 076°36'7 7.1
2015-Jan-19 21:33N 34°38' W 076°40'4 3.9
2015-Jan-19 20:33N 34°42' W 076°41'1 1.1
2015-Jan-19 19:33N 34°43' W 076°42'0 0.0
2015-Jan-19 18:33N 34°43' W 076°42'0 0.0
2015-Jan-19 17:33N 34°43' W 076°42'0 0.0
2015-Jan-19 16:33N 34°43' W 076°42'0 0.0
2015-Jan-19 15:33N 34°43' W 076°42'0 0.0
2015-Jan-19 14:33N 34°43' W 076°42'0 0.0
2015-Jan-19 13:33N 34°43' W 076°42'0 0.0
2015-Jan-19 12:33N 34°43' W 076°42'0 0.0
2015-Jan-19 11:33N 34°43' W 076°42'0 0.0
2015-Jan-19 10:33N 34°43' W 076°42'0 0.0
2015-Jan-19 09:33N 34°43' W 076°42'0 0.0
2015-Jan-19 08:33N 34°43' W 076°42'0 0.0
2015-Jan-19 07:33N 34°43' W 076°42'0 0.0
2015-Jan-19 06:33N 34°43' W 076°42'0 0.0
2015-Jan-19 05:33N 34°43' W 076°42'0 0.0
2015-Jan-19 04:33N 34°43' W 076°42'0 0.0
2015-Jan-19 03:33N 34°43' W 076°42'0 0.0
2015-Jan-19 02:33N 34°43' W 076°42'0 0.0
2015-Jan-19 01:33N 34°43' W 076°42'0 0.0
2015-Jan-19 00:33N 34°43' W 076°42'0 0.0
2015-Jan-18 23:33N 34°43' W 076°42'0 0.0
2015-Jan-18 22:33N 34°43' W 076°42'0 0.0
2015-Jan-18 21:33N 34°43' W 076°42'0 0.0
2015-Jan-18 20:33N 34°43' W 076°42'0 0.0
2015-Jan-18 19:33N 34°43' W 076°42'0 0.0
2015-Jan-18 18:33N 34°43' W 076°42'0 0.0
2015-Jan-18 17:33N 34°43' W 076°42'0 0.0
2015-Jan-18 16:33N 34°43' W 076°42'0 0.0
2015-Jan-18 15:33N 34°43' W 076°42'0 0.0
2015-Jan-18 14:33N 34°43' W 076°42'0 0.0
2015-Jan-18 13:33N 34°43' W 076°42'0 0.0
2015-Jan-18 12:33N 34°43' W 076°42'0 0.0
2015-Jan-18 11:33N 34°43' W 076°42'0 0.0
2015-Jan-18 10:33N 34°43' W 076°42'0 0.0
2015-Jan-18 09:33N 34°43' W 076°42'0 0.0
2015-Jan-18 08:33N 34°43' W 076°42'0 0.0
2015-Jan-18 07:33N 34°43' W 076°42'0 0.0
2015-Jan-18 06:33N 34°43' W 076°42'0 0.0
2015-Jan-18 05:33N 34°43' W 076°42'0 0.0
2015-Jan-18 04:33N 34°43' W 076°42'0 0.0
2015-Jan-18 03:33N 34°43' W 076°42'0 0.0
2015-Jan-18 02:33N 34°43' W 076°42'0 0.3
2015-Jan-18 01:33N 34°43' W 076°42'3 3.0
2015-Jan-18 00:33N 34°40' W 076°40'1 1.3
2015-Jan-17 23:33N 34°39' W 076°40'5 4.7
2015-Jan-17 22:33N 34°34' W 076°43'7 7.3
2015-Jan-17 21:33N 34°28' W 076°47'  

Dump ship's entire track history